Terminal Aerodrome Forecast
Issued by NWS

Home | Current Version | Previous Version | Text Only | Print | Product List | Glossary On
Versions: 1 2 3 4 5 6 7 8 9 10 11 12 13 14 15 16 17 18 19 20
000
FTUS43 KMQT 051244 AAA
TAFIWD
TAF AMD
KIWD 051244Z 0513/0612 12004KT 6SM BR OVC010
     FM051400 15005KT P6SM FEW015 SCT070
     FM051900 18006KT P6SM SCT070
     FM052300 19006KT P6SM BKN090
     FM060600 19007KT 6SM BR VCSH BKN130
     FM060900 19008KT 6SM BR VCSH BKN080
      AMD LTD TO CLD VIS AND WIND=

USA.gov is the U.S. government's official web portal to all federal, state and local government web resources and services.